sensor_id;sensor_type;location;lat;lon;timestamp;P1;durP1;ratioP1;P2;durP2;ratioP2
28174;SDS011;59417;44.788;10.334;2023-12-04T00:01:18;16.40;;;12.07;;
28174;SDS011;59417;44.788;10.334;2023-12-04T00:03:47;17.33;;;11.75;;
28174;SDS011;59417;44.788;10.334;2023-12-04T00:06:13;14.85;;;10.93;;
28174;SDS011;59417;44.788;10.334;2023-12-04T00:08:39;14.85;;;11.25;;
28174;SDS011;59417;44.788;10.334;2023-12-04T00:11:06;13.27;;;11.07;;
28174;SDS011;59417;44.788;10.334;2023-12-04T00:13:32;14.82;;;11.60;;
28174;SDS011;59417;44.788;10.334;2023-12-04T00:15:58;14.38;;;11.73;;
28174;SDS011;59417;44.788;10.334;2023-12-04T00:18:27;15.67;;;11.10;;
28174;SDS011;59417;44.788;10.334;2023-12-04T00:20:59;18.13;;;11.75;;
28174;SDS011;59417;44.788;10.334;2023-12-04T00:23:25;17.35;;;11.48;;
28174;SDS011;59417;44.788;10.334;2023-12-04T00:25:51;14.93;;;11.02;;
28174;SDS011;59417;44.788;10.334;2023-12-04T00:28:17;16.25;;;11.13;;
28174;SDS011;59417;44.788;10.334;2023-12-04T00:30:46;16.00;;;11.88;;
28174;SDS011;59417;44.788;10.334;2023-12-04T00:33:12;16.83;;;11.70;;
28174;SDS011;59417;44.788;10.334;2023-12-04T00:35:38;21.25;;;12.52;;
28174;SDS011;59417;44.788;10.334;2023-12-04T00:38:09;17.63;;;11.60;;
28174;SDS011;59417;44.788;10.334;2023-12-04T00:40:34;24.23;;;12.80;;
28174;SDS011;59417;44.788;10.334;2023-12-04T00:43:00;17.13;;;12.25;;
28174;SDS011;59417;44.788;10.334;2023-12-04T00:45:26;20.02;;;13.70;;
28174;SDS011;59417;44.788;10.334;2023-12-04T00:47:55;23.13;;;12.98;;
28174;SDS011;59417;44.788;10.334;2023-12-04T00:50:21;21.83;;;14.90;;
28174;SDS011;59417;44.788;10.334;2023-12-04T00:52:47;23.05;;;15.48;;
28174;SDS011;59417;44.788;10.334;2023-12-04T00:55:13;24.05;;;14.57;;
28174;SDS011;59417;44.788;10.334;2023-12-04T00:57:39;22.70;;;14.27;;
28174;SDS011;59417;44.788;10.334;2023-12-04T01:00:05;20.00;;;14.23;;
28174;SDS011;59417;44.788;10.334;2023-12-04T01:02:32;21.95;;;14.85;;
28174;SDS011;59417;44.788;10.334;2023-12-04T01:04:57;20.35;;;13.65;;
28174;SDS011;59417;44.788;10.334;2023-12-04T01:07:23;24.20;;;14.35;;
28174;SDS011;59417;44.788;10.334;2023-12-04T01:09:55;20.55;;;14.15;;
28174;SDS011;59417;44.788;10.334;2023-12-04T01:12:24;21.42;;;14.85;;
28174;SDS011;59417;44.788;10.334;2023-12-04T01:14:50;24.25;;;15.40;;
28174;SDS011;59417;44.788;10.334;2023-12-04T01:17:16;22.48;;;14.02;;
28174;SDS011;59417;44.788;10.334;2023-12-04T01:19:42;22.58;;;14.55;;
28174;SDS011;59417;44.788;10.334;2023-12-04T01:22:08;21.10;;;13.30;;
28174;SDS011;59417;44.788;10.334;2023-12-04T01:24:34;23.40;;;15.10;;
28174;SDS011;59417;44.788;10.334;2023-12-04T01:27:00;21.40;;;15.18;;
28174;SDS011;59417;44.788;10.334;2023-12-04T01:29:25;17.23;;;13.68;;
28174;SDS011;59417;44.788;10.334;2023-12-04T01:31:51;21.75;;;14.82;;
28174;SDS011;59417;44.788;10.334;2023-12-04T01:34:20;21.23;;;14.48;;
28174;SDS011;59417;44.788;10.334;2023-12-04T01:36:46;22.63;;;14.70;;
28174;SDS011;59417;44.788;10.334;2023-12-04T01:39:12;18.40;;;13.00;;
28174;SDS011;59417;44.788;10.334;2023-12-04T01:41:38;19.48;;;15.00;;
28174;SDS011;59417;44.788;10.334;2023-12-04T01:44:05;19.67;;;13.77;;
28174;SDS011;59417;44.788;10.334;2023-12-04T01:46:31;22.73;;;13.40;;
28174;SDS011;59417;44.788;10.334;2023-12-04T01:49:00;17.88;;;12.05;;
28174;SDS011;59417;44.788;10.334;2023-12-04T01:51:29;17.42;;;12.27;;
28174;SDS011;59417;44.788;10.334;2023-12-04T01:54:00;22.80;;;13.63;;
28174;SDS011;59417;44.788;10.334;2023-12-04T01:56:30;17.35;;;11.43;;
28174;SDS011;59417;44.788;10.334;2023-12-04T01:58:57;18.08;;;12.77;;
28174;SDS011;59417;44.788;10.334;2023-12-04T02:01:23;17.40;;;12.40;;
28174;SDS011;59417;44.788;10.334;2023-12-04T02:03:50;17.10;;;12.85;;
28174;SDS011;59417;44.788;10.334;2023-12-04T02:06:16;17.77;;;13.05;;
28174;SDS011;59417;44.788;10.334;2023-12-04T02:08:47;19.15;;;13.30;;
28174;SDS011;59417;44.788;10.334;2023-12-04T02:11:14;18.05;;;12.77;;
28174;SDS011;59417;44.788;10.334;2023-12-04T02:13:40;16.13;;;11.93;;
28174;SDS011;59417;44.788;10.334;2023-12-04T02:16:07;19.27;;;13.23;;
28174;SDS011;59417;44.788;10.334;2023-12-04T02:18:39;18.58;;;12.20;;
28174;SDS011;59417;44.788;10.334;2023-12-04T02:21:06;16.88;;;11.98;;
28174;SDS011;59417;44.788;10.334;2023-12-04T02:23:35;16.27;;;11.98;;
28174;SDS011;59417;44.788;10.334;2023-12-04T02:26:03;18.90;;;12.48;;
28174;SDS011;59417;44.788;10.334;2023-12-04T02:28:36;20.52;;;12.35;;
28174;SDS011;59417;44.788;10.334;2023-12-04T02:31:04;15.55;;;11.88;;
28174;SDS011;59417;44.788;10.334;2023-12-04T02:33:32;18.02;;;12.02;;
28174;SDS011;59417;44.788;10.334;2023-12-04T02:36:00;18.08;;;11.77;;
28174;SDS011;59417;44.788;10.334;2023-12-04T02:38:27;17.35;;;12.00;;
28174;SDS011;59417;44.788;10.334;2023-12-04T02:40:54;17.45;;;11.85;;
28174;SDS011;59417;44.788;10.334;2023-12-04T02:43:21;14.80;;;11.82;;
28174;SDS011;59417;44.788;10.334;2023-12-04T02:45:47;20.52;;;11.38;;
28174;SDS011;59417;44.788;10.334;2023-12-04T02:48:13;17.25;;;12.27;;
28174;SDS011;59417;44.788;10.334;2023-12-04T02:50:41;19.08;;;11.40;;
28174;SDS011;59417;44.788;10.334;2023-12-04T02:53:11;16.33;;;11.65;;
28174;SDS011;59417;44.788;10.334;2023-12-04T02:55:37;17.52;;;12.15;;
28174;SDS011;59417;44.788;10.334;2023-12-04T02:58:03;19.15;;;12.80;;
28174;SDS011;59417;44.788;10.334;2023-12-04T03:00:31;17.90;;;12.65;;
28174;SDS011;59417;44.788;10.334;2023-12-04T03:02:57;16.92;;;12.00;;
28174;SDS011;59417;44.788;10.334;2023-12-04T03:05:23;16.98;;;12.20;;
28174;SDS011;59417;44.788;10.334;2023-12-04T03:07:49;17.48;;;12.32;;
28174;SDS011;59417;44.788;10.334;2023-12-04T03:10:15;19.55;;;12.32;;
28174;SDS011;59417;44.788;10.334;2023-12-04T03:12:41;20.60;;;12.02;;
28174;SDS011;59417;44.788;10.334;2023-12-04T03:15:09;15.98;;;11.95;;
28174;SDS011;59417;44.788;10.334;2023-12-04T03:17:37;15.10;;;10.95;;
28174;SDS011;59417;44.788;10.334;2023-12-04T03:20:03;16.23;;;11.93;;
28174;SDS011;59417;44.788;10.334;2023-12-04T03:22:30;17.17;;;11.23;;
28174;SDS011;59417;44.788;10.334;2023-12-04T03:24:56;15.80;;;11.38;;
28174;SDS011;59417;44.788;10.334;2023-12-04T03:27:21;17.77;;;11.50;;
28174;SDS011;59417;44.788;10.334;2023-12-04T03:29:47;16.77;;;12.68;;
28174;SDS011;59417;44.788;10.334;2023-12-04T03:32:13;15.02;;;11.95;;
28174;SDS011;59417;44.788;10.334;2023-12-04T03:34:45;16.80;;;11.25;;
28174;SDS011;59417;44.788;10.334;2023-12-04T03:37:11;19.83;;;12.40;;
28174;SDS011;59417;44.788;10.334;2023-12-04T03:39:37;16.98;;;12.40;;
28174;SDS011;59417;44.788;10.334;2023-12-04T03:42:03;20.35;;;11.73;;
28174;SDS011;59417;44.788;10.334;2023-12-04T03:44:30;21.95;;;11.68;;
28174;SDS011;59417;44.788;10.334;2023-12-04T03:47:00;15.07;;;11.85;;
28174;SDS011;59417;44.788;10.334;2023-12-04T03:49:28;17.58;;;11.05;;
28174;SDS011;59417;44.788;10.334;2023-12-04T03:51:54;18.48;;;12.00;;
28174;SDS011;59417;44.788;10.334;2023-12-04T03:54:20;16.20;;;12.07;;
28174;SDS011;59417;44.788;10.334;2023-12-04T03:56:46;14.88;;;10.48;;
28174;SDS011;59417;44.788;10.334;2023-12-04T03:59:12;14.77;;;11.10;;
28174;SDS011;59417;44.788;10.334;2023-12-04T04:01:39;17.42;;;11.80;;
28174;SDS011;59417;44.788;10.334;2023-12-04T04:04:05;14.70;;;11.23;;
28174;SDS011;59417;44.788;10.334;2023-12-04T04:06:31;14.88;;;10.88;;
28174;SDS011;59417;44.788;10.334;2023-12-04T04:08:58;15.85;;;10.82;;
28174;SDS011;59417;44.788;10.334;2023-12-04T04:11:30;13.63;;;11.07;;
28174;SDS011;59417;44.788;10.334;2023-12-04T04:13:55;14.18;;;10.98;;
28174;SDS011;59417;44.788;10.334;2023-12-04T04:16:21;19.02;;;12.05;;
28174;SDS011;59417;44.788;10.334;2023-12-04T04:18:49;14.43;;;11.48;;
28174;SDS011;59417;44.788;10.334;2023-12-04T04:21:16;16.08;;;11.45;;
28174;SDS011;59417;44.788;10.334;2023-12-04T04:23:42;18.42;;;12.30;;
28174;SDS011;59417;44.788;10.334;2023-12-04T04:26:08;14.32;;;11.35;;
28174;SDS011;59417;44.788;10.334;2023-12-04T04:28:34;16.77;;;11.98;;
28174;SDS011;59417;44.788;10.334;2023-12-04T04:31:03;17.38;;;11.52;;
28174;SDS011;59417;44.788;10.334;2023-12-04T04:33:28;15.77;;;11.73;;
28174;SDS011;59417;44.788;10.334;2023-12-04T04:35:54;18.92;;;11.90;;
28174;SDS011;59417;44.788;10.334;2023-12-04T04:38:21;16.08;;;11.50;;
28174;SDS011;59417;44.788;10.334;2023-12-04T04:40:47;15.00;;;10.70;;
28174;SDS011;59417;44.788;10.334;2023-12-04T04:43:21;17.20;;;9.77;;
28174;SDS011;59417;44.788;10.334;2023-12-04T04:45:47;15.73;;;11.30;;
28174;SDS011;59417;44.788;10.334;2023-12-04T04:48:15;17.88;;;12.18;;
28174;SDS011;59417;44.788;10.334;2023-12-04T04:50:45;14.00;;;11.00;;
28174;SDS011;59417;44.788;10.334;2023-12-04T04:53:11;15.65;;;11.65;;
28174;SDS011;59417;44.788;10.334;2023-12-04T04:55:37;15.25;;;11.10;;
28174;SDS011;59417;44.788;10.334;2023-12-04T04:58:02;17.48;;;12.23;;
28174;SDS011;59417;44.788;10.334;2023-12-04T05:00:28;17.92;;;11.98;;
28174;SDS011;59417;44.788;10.334;2023-12-04T05:02:54;16.95;;;11.88;;
28174;SDS011;59417;44.788;10.334;2023-12-04T05:05:20;17.90;;;11.88;;
28174;SDS011;59417;44.788;10.334;2023-12-04T05:07:46;16.75;;;12.05;;
28174;SDS011;59417;44.788;10.334;2023-12-04T05:10:17;18.23;;;12.52;;
28174;SDS011;59417;44.788;10.334;2023-12-04T05:12:49;20.60;;;12.98;;
28174;SDS011;59417;44.788;10.334;2023-12-04T05:15:16;21.33;;;13.30;;
28174;SDS011;59417;44.788;10.334;2023-12-04T05:17:44;24.08;;;13.73;;
28174;SDS011;59417;44.788;10.334;2023-12-04T05:20:17;17.05;;;11.65;;
28174;SDS011;59417;44.788;10.334;2023-12-04T05:22:45;18.48;;;13.25;;
28174;SDS011;59417;44.788;10.334;2023-12-04T05:25:11;17.50;;;12.25;;
28174;SDS011;59417;44.788;10.334;2023-12-04T05:27:43;16.55;;;12.27;;
28174;SDS011;59417;44.788;10.334;2023-12-04T05:30:13;16.27;;;11.48;;
28174;SDS011;59417;44.788;10.334;2023-12-04T05:32:39;17.45;;;12.40;;
28174;SDS011;59417;44.788;10.334;2023-12-04T05:35:15;17.95;;;12.18;;
28174;SDS011;59417;44.788;10.334;2023-12-04T05:37:44;15.10;;;11.10;;
28174;SDS011;59417;44.788;10.334;2023-12-04T05:40:10;16.77;;;10.38;;
28174;SDS011;59417;44.788;10.334;2023-12-04T05:42:37;15.93;;;11.50;;
28174;SDS011;59417;44.788;10.334;2023-12-04T05:45:03;17.20;;;11.65;;
28174;SDS011;59417;44.788;10.334;2023-12-04T05:47:29;15.05;;;11.18;;
28174;SDS011;59417;44.788;10.334;2023-12-04T05:49:55;19.95;;;11.98;;
28174;SDS011;59417;44.788;10.334;2023-12-04T05:52:24;15.57;;;12.13;;
28174;SDS011;59417;44.788;10.334;2023-12-04T05:54:53;18.10;;;12.30;;
28174;SDS011;59417;44.788;10.334;2023-12-04T05:57:18;19.52;;;12.52;;
28174;SDS011;59417;44.788;10.334;2023-12-04T05:59:44;16.75;;;11.63;;
28174;SDS011;59417;44.788;10.334;2023-12-04T06:02:16;17.30;;;11.65;;
28174;SDS011;59417;44.788;10.334;2023-12-04T06:04:42;19.63;;;11.65;;
28174;SDS011;59417;44.788;10.334;2023-12-04T06:07:08;16.52;;;12.07;;
28174;SDS011;59417;44.788;10.334;2023-12-04T06:09:36;18.00;;;13.32;;
28174;SDS011;59417;44.788;10.334;2023-12-04T06:12:05;18.73;;;12.67;;
28174;SDS011;59417;44.788;10.334;2023-12-04T06:14:34;15.13;;;11.82;;
28174;SDS011;59417;44.788;10.334;2023-12-04T06:17:00;18.58;;;12.80;;
28174;SDS011;59417;44.788;10.334;2023-12-04T06:19:28;20.98;;;12.75;;
28174;SDS011;59417;44.788;10.334;2023-12-04T06:21:55;22.10;;;12.95;;
28174;SDS011;59417;44.788;10.334;2023-12-04T06:24:24;15.20;;;11.95;;
28174;SDS011;59417;44.788;10.334;2023-12-04T06:26:54;18.63;;;13.68;;
28174;SDS011;59417;44.788;10.334;2023-12-04T06:29:21;21.48;;;13.25;;
28174;SDS011;59417;44.788;10.334;2023-12-04T06:31:48;21.17;;;13.43;;
28174;SDS011;59417;44.788;10.334;2023-12-04T06:34:14;22.25;;;13.07;;
28174;SDS011;59417;44.788;10.334;2023-12-04T06:36:41;16.65;;;12.23;;
28174;SDS011;59417;44.788;10.334;2023-12-04T06:39:09;19.05;;;12.18;;
28174;SDS011;59417;44.788;10.334;2023-12-04T06:41:38;21.13;;;13.88;;
28174;SDS011;59417;44.788;10.334;2023-12-04T06:44:08;21.10;;;14.77;;
28174;SDS011;59417;44.788;10.334;2023-12-04T06:46:36;19.90;;;15.10;;
28174;SDS011;59417;44.788;10.334;2023-12-04T06:49:04;18.55;;;14.10;;
28174;SDS011;59417;44.788;10.334;2023-12-04T06:51:33;19.65;;;13.98;;
28174;SDS011;59417;44.788;10.334;2023-12-04T06:54:01;19.92;;;13.52;;
28174;SDS011;59417;44.788;10.334;2023-12-04T06:56:27;24.05;;;12.82;;
28174;SDS011;59417;44.788;10.334;2023-12-04T06:58:54;22.13;;;13.35;;
28174;SDS011;59417;44.788;10.334;2023-12-04T07:01:24;19.48;;;12.68;;
28174;SDS011;59417;44.788;10.334;2023-12-04T07:03:50;19.75;;;13.02;;
28174;SDS011;59417;44.788;10.334;2023-12-04T07:06:15;20.70;;;12.88;;
28174;SDS011;59417;44.788;10.334;2023-12-04T07:08:42;19.10;;;13.45;;
28174;SDS011;59417;44.788;10.334;2023-12-04T07:11:08;15.40;;;11.57;;
28174;SDS011;59417;44.788;10.334;2023-12-04T07:13:35;20.42;;;12.40;;
28174;SDS011;59417;44.788;10.334;2023-12-04T07:16:01;15.02;;;11.45;;
28174;SDS011;59417;44.788;10.334;2023-12-04T07:18:28;17.60;;;12.27;;
28174;SDS011;59417;44.788;10.334;2023-12-04T07:20:54;15.88;;;11.68;;
28174;SDS011;59417;44.788;10.334;2023-12-04T07:23:20;18.40;;;12.70;;
28174;SDS011;59417;44.788;10.334;2023-12-04T07:25:47;15.18;;;11.68;;
28174;SDS011;59417;44.788;10.334;2023-12-04T07:28:13;18.73;;;12.98;;
28174;SDS011;59417;44.788;10.334;2023-12-04T07:30:39;19.95;;;12.90;;
28174;SDS011;59417;44.788;10.334;2023-12-04T07:33:06;19.42;;;12.73;;
28174;SDS011;59417;44.788;10.334;2023-12-04T07:35:33;19.35;;;12.75;;
28174;SDS011;59417;44.788;10.334;2023-12-04T07:38:01;22.13;;;13.27;;
28174;SDS011;59417;44.788;10.334;2023-12-04T07:40:26;21.30;;;13.25;;
28174;SDS011;59417;44.788;10.334;2023-12-04T07:42:53;18.67;;;12.95;;
28174;SDS011;59417;44.788;10.334;2023-12-04T07:45:19;20.10;;;13.60;;
28174;SDS011;59417;44.788;10.334;2023-12-04T07:50:21;26.98;;;13.68;;
28174;SDS011;59417;44.788;10.334;2023-12-04T07:52:48;23.30;;;14.13;;
28174;SDS011;59417;44.788;10.334;2023-12-04T07:55:14;19.90;;;13.60;;
28174;SDS011;59417;44.788;10.334;2023-12-04T07:57:41;23.60;;;14.68;;
28174;SDS011;59417;44.788;10.334;2023-12-04T08:00:07;20.88;;;15.07;;
28174;SDS011;59417;44.788;10.334;2023-12-04T08:02:34;22.20;;;13.35;;
28174;SDS011;59417;44.788;10.334;2023-12-04T08:05:00;19.90;;;14.68;;
28174;SDS011;59417;44.788;10.334;2023-12-04T08:07:27;22.35;;;15.88;;
28174;SDS011;59417;44.788;10.334;2023-12-04T08:09:52;28.90;;;14.85;;
28174;SDS011;59417;44.788;10.334;2023-12-04T08:12:19;24.35;;;15.13;;
28174;SDS011;59417;44.788;10.334;2023-12-04T08:14:47;20.15;;;13.30;;
28174;SDS011;59417;44.788;10.334;2023-12-04T08:17:13;21.95;;;14.40;;
28174;SDS011;59417;44.788;10.334;2023-12-04T08:19:40;22.85;;;15.27;;
28174;SDS011;59417;44.788;10.334;2023-12-04T08:22:08;21.65;;;15.38;;
28174;SDS011;59417;44.788;10.334;2023-12-04T08:24:38;24.67;;;14.50;;
28174;SDS011;59417;44.788;10.334;2023-12-04T08:27:07;17.13;;;13.75;;
28174;SDS011;59417;44.788;10.334;2023-12-04T08:29:46;24.30;;;14.85;;
28174;SDS011;59417;44.788;10.334;2023-12-04T08:34:46;23.05;;;13.57;;
28174;SDS011;59417;44.788;10.334;2023-12-04T08:37:15;21.40;;;14.60;;
28174;SDS011;59417;44.788;10.334;2023-12-04T08:39:46;25.98;;;15.07;;
28174;SDS011;59417;44.788;10.334;2023-12-04T08:42:12;21.05;;;14.85;;
28174;SDS011;59417;44.788;10.334;2023-12-04T08:44:39;21.13;;;14.50;;
28174;SDS011;59417;44.788;10.334;2023-12-04T08:47:05;26.98;;;14.70;;
28174;SDS011;59417;44.788;10.334;2023-12-04T08:49:31;22.80;;;15.07;;
28174;SDS011;59417;44.788;10.334;2023-12-04T08:52:12;22.88;;;15.43;;
28174;SDS011;59417;44.788;10.334;2023-12-04T08:54:47;20.27;;;14.65;;
28174;SDS011;59417;44.788;10.334;2023-12-04T08:57:14;23.13;;;14.20;;
28174;SDS011;59417;44.788;10.334;2023-12-04T08:59:45;21.92;;;15.13;;
28174;SDS011;59417;44.788;10.334;2023-12-04T09:02:12;22.95;;;15.63;;
28174;SDS011;59417;44.788;10.334;2023-12-04T09:04:42;21.42;;;15.70;;
28174;SDS011;59417;44.788;10.334;2023-12-04T09:07:11;26.88;;;15.38;;
28174;SDS011;59417;44.788;10.334;2023-12-04T09:09:37;19.50;;;15.13;;
28174;SDS011;59417;44.788;10.334;2023-12-04T09:12:03;21.27;;;15.43;;
28174;SDS011;59417;44.788;10.334;2023-12-04T09:14:29;22.10;;;15.45;;
28174;SDS011;59417;44.788;10.334;2023-12-04T09:16:55;25.63;;;15.45;;
28174;SDS011;59417;44.788;10.334;2023-12-04T09:19:21;25.25;;;16.05;;
28174;SDS011;59417;44.788;10.334;2023-12-04T09:21:50;21.58;;;16.65;;
28174;SDS011;59417;44.788;10.334;2023-12-04T09:24:16;19.53;;;15.93;;
28174;SDS011;59417;44.788;10.334;2023-12-04T09:26:42;27.38;;;16.20;;
28174;SDS011;59417;44.788;10.334;2023-12-04T09:29:10;18.55;;;14.55;;
28174;SDS011;59417;44.788;10.334;2023-12-04T09:31:40;20.80;;;14.73;;
28174;SDS011;59417;44.788;10.334;2023-12-04T09:34:05;20.38;;;14.98;;
28174;SDS011;59417;44.788;10.334;2023-12-04T09:36:31;25.58;;;15.95;;
28174;SDS011;59417;44.788;10.334;2023-12-04T09:38:59;22.80;;;15.38;;
28174;SDS011;59417;44.788;10.334;2023-12-04T09:41:25;20.73;;;14.65;;
28174;SDS011;59417;44.788;10.334;2023-12-04T09:43:53;19.48;;;14.90;;
28174;SDS011;59417;44.788;10.334;2023-12-04T09:46:19;19.70;;;14.63;;
28174;SDS011;59417;44.788;10.334;2023-12-04T09:48:47;24.50;;;15.57;;
28174;SDS011;59417;44.788;10.334;2023-12-04T09:51:14;20.23;;;15.73;;
28174;SDS011;59417;44.788;10.334;2023-12-04T09:53:41;19.90;;;14.73;;
28174;SDS011;59417;44.788;10.334;2023-12-04T09:56:07;24.63;;;15.65;;
28174;SDS011;59417;44.788;10.334;2023-12-04T09:58:34;23.00;;;15.20;;
28174;SDS011;59417;44.788;10.334;2023-12-04T10:01:06;24.98;;;14.98;;
28174;SDS011;59417;44.788;10.334;2023-12-04T10:03:34;19.50;;;15.23;;
28174;SDS011;59417;44.788;10.334;2023-12-04T10:06:04;25.67;;;15.45;;
28174;SDS011;59417;44.788;10.334;2023-12-04T10:08:31;24.02;;;14.75;;
28174;SDS011;59417;44.788;10.334;2023-12-04T10:10:58;22.50;;;14.52;;
28174;SDS011;59417;44.788;10.334;2023-12-04T10:13:36;23.02;;;15.82;;
28174;SDS011;59417;44.788;10.334;2023-12-04T10:16:04;20.00;;;14.57;;
28174;SDS011;59417;44.788;10.334;2023-12-04T10:18:34;19.63;;;14.52;;
28174;SDS011;59417;44.788;10.334;2023-12-04T10:21:06;21.75;;;14.38;;
28174;SDS011;59417;44.788;10.334;2023-12-04T10:23:39;21.95;;;15.32;;
28174;SDS011;59417;44.788;10.334;2023-12-04T10:26:10;23.77;;;15.15;;
28174;SDS011;59417;44.788;10.334;2023-12-04T10:29:03;19.73;;;14.00;;
28174;SDS011;59417;44.788;10.334;2023-12-04T10:31:40;22.55;;;15.23;;
28174;SDS011;59417;44.788;10.334;2023-12-04T10:34:06;26.45;;;14.48;;
28174;SDS011;59417;44.788;10.334;2023-12-04T10:36:35;17.23;;;13.88;;
28174;SDS011;59417;44.788;10.334;2023-12-04T10:39:02;21.08;;;14.05;;
28174;SDS011;59417;44.788;10.334;2023-12-04T10:41:31;19.33;;;13.13;;
28174;SDS011;59417;44.788;10.334;2023-12-04T10:43:57;17.30;;;13.88;;
28174;SDS011;59417;44.788;10.334;2023-12-04T10:46:26;18.75;;;12.27;;
28174;SDS011;59417;44.788;10.334;2023-12-04T10:48:54;17.40;;;12.75;;
28174;SDS011;59417;44.788;10.334;2023-12-04T10:51:22;20.70;;;14.07;;
28174;SDS011;59417;44.788;10.334;2023-12-04T10:53:51;23.13;;;14.27;;
28174;SDS011;59417;44.788;10.334;2023-12-04T10:59:21;19.80;;;14.38;;
28174;SDS011;59417;44.788;10.334;2023-12-04T11:01:53;18.25;;;12.77;;
28174;SDS011;59417;44.788;10.334;2023-12-04T11:04:22;17.35;;;12.18;;
28174;SDS011;59417;44.788;10.334;2023-12-04T11:06:52;20.02;;;13.00;;
28174;SDS011;59417;44.788;10.334;2023-12-04T11:09:20;15.88;;;11.20;;
28174;SDS011;59417;44.788;10.334;2023-12-04T11:11:51;16.60;;;11.85;;
28174;SDS011;59417;44.788;10.334;2023-12-04T11:14:22;16.00;;;12.07;;
28174;SDS011;59417;44.788;10.334;2023-12-04T11:16:57;16.73;;;12.25;;
28174;SDS011;59417;44.788;10.334;2023-12-04T11:19:54;18.52;;;13.10;;
28174;SDS011;59417;44.788;10.334;2023-12-04T11:22:30;20.58;;;12.75;;
28174;SDS011;59417;44.788;10.334;2023-12-04T11:25:03;15.23;;;11.07;;
28174;SDS011;59417;44.788;10.334;2023-12-04T11:27:32;17.75;;;12.32;;
28174;SDS011;59417;44.788;10.334;2023-12-04T11:30:20;15.70;;;11.85;;
28174;SDS011;59417;44.788;10.334;2023-12-04T11:32:48;17.27;;;11.73;;
28174;SDS011;59417;44.788;10.334;2023-12-04T11:35:14;19.30;;;13.07;;
28174;SDS011;59417;44.788;10.334;2023-12-04T11:37:43;14.57;;;11.43;;
28174;SDS011;59417;44.788;10.334;2023-12-04T11:40:16;17.25;;;12.48;;
28174;SDS011;59417;44.788;10.334;2023-12-04T11:42:43;18.55;;;12.32;;
28174;SDS011;59417;44.788;10.334;2023-12-04T11:45:11;16.67;;;11.68;;
28174;SDS011;59417;44.788;10.334;2023-12-04T11:50:18;19.08;;;11.73;;
28174;SDS011;59417;44.788;10.334;2023-12-04T11:52:48;19.63;;;11.85;;
28174;SDS011;59417;44.788;10.334;2023-12-04T11:55:22;16.45;;;11.55;;
28174;SDS011;59417;44.788;10.334;2023-12-04T11:57:50;18.05;;;12.80;;
28174;SDS011;59417;44.788;10.334;2023-12-04T12:00:21;17.15;;;11.90;;
28174;SDS011;59417;44.788;10.334;2023-12-04T12:05:22;18.98;;;12.65;;
28174;SDS011;59417;44.788;10.334;2023-12-04T12:07:49;17.85;;;12.35;;
28174;SDS011;59417;44.788;10.334;2023-12-04T12:10:16;19.00;;;11.73;;
28174;SDS011;59417;44.788;10.334;2023-12-04T12:12:48;16.90;;;13.15;;
28174;SDS011;59417;44.788;10.334;2023-12-04T12:15:15;16.60;;;12.43;;
28174;SDS011;59417;44.788;10.334;2023-12-04T12:17:42;19.52;;;13.57;;
28174;SDS011;59417;44.788;10.334;2023-12-04T12:20:12;15.43;;;12.80;;
28174;SDS011;59417;44.788;10.334;2023-12-04T12:22:40;15.23;;;12.55;;
28174;SDS011;59417;44.788;10.334;2023-12-04T12:25:12;18.10;;;13.55;;
28174;SDS011;59417;44.788;10.334;2023-12-04T12:27:40;18.27;;;13.30;;
28174;SDS011;59417;44.788;10.334;2023-12-04T12:30:09;18.25;;;13.15;;
28174;SDS011;59417;44.788;10.334;2023-12-04T12:32:36;19.35;;;13.55;;
28174;SDS011;59417;44.788;10.334;2023-12-04T12:35:06;21.80;;;14.05;;
28174;SDS011;59417;44.788;10.334;2023-12-04T12:37:37;20.17;;;13.38;;
28174;SDS011;59417;44.788;10.334;2023-12-04T12:40:09;21.95;;;13.70;;
28174;SDS011;59417;44.788;10.334;2023-12-04T12:42:38;19.52;;;14.32;;
28174;SDS011;59417;44.788;10.334;2023-12-04T12:45:07;20.60;;;13.73;;
28174;SDS011;59417;44.788;10.334;2023-12-04T12:47:39;21.63;;;14.77;;
28174;SDS011;59417;44.788;10.334;2023-12-04T12:52:35;20.08;;;13.88;;
28174;SDS011;59417;44.788;10.334;2023-12-04T12:55:02;17.05;;;13.20;;
28174;SDS011;59417;44.788;10.334;2023-12-04T12:57:31;18.50;;;14.60;;
28174;SDS011;59417;44.788;10.334;2023-12-04T12:59:58;22.45;;;14.32;;
28174;SDS011;59417;44.788;10.334;2023-12-04T13:02:24;20.63;;;14.95;;
28174;SDS011;59417;44.788;10.334;2023-12-04T13:04:52;20.35;;;13.15;;
28174;SDS011;59417;44.788;10.334;2023-12-04T13:07:17;21.77;;;14.73;;
28174;SDS011;59417;44.788;10.334;2023-12-04T13:09:44;21.58;;;15.52;;
28174;SDS011;59417;44.788;10.334;2023-12-04T13:12:10;25.10;;;14.48;;
28174;SDS011;59417;44.788;10.334;2023-12-04T13:14:36;21.42;;;14.35;;
28174;SDS011;59417;44.788;10.334;2023-12-04T13:17:03;21.33;;;14.90;;
28174;SDS011;59417;44.788;10.334;2023-12-04T13:19:32;21.83;;;14.65;;
28174;SDS011;59417;44.788;10.334;2023-12-04T13:22:00;18.52;;;14.20;;
28174;SDS011;59417;44.788;10.334;2023-12-04T13:24:28;17.25;;;13.80;;
28174;SDS011;59417;44.788;10.334;2023-12-04T13:26:53;24.13;;;15.02;;
28174;SDS011;59417;44.788;10.334;2023-12-04T13:29:24;21.98;;;14.07;;
28174;SDS011;59417;44.788;10.334;2023-12-04T13:31:51;20.77;;;15.35;;
28174;SDS011;59417;44.788;10.334;2023-12-04T13:34:17;21.65;;;15.25;;
28174;SDS011;59417;44.788;10.334;2023-12-04T13:36:43;21.33;;;14.57;;
28174;SDS011;59417;44.788;10.334;2023-12-04T13:39:11;23.85;;;15.00;;
28174;SDS011;59417;44.788;10.334;2023-12-04T13:41:43;22.42;;;15.45;;
28174;SDS011;59417;44.788;10.334;2023-12-04T13:44:32;20.95;;;14.68;;
28174;SDS011;59417;44.788;10.334;2023-12-04T13:46:59;21.30;;;14.43;;
28174;SDS011;59417;44.788;10.334;2023-12-04T13:49:26;23.70;;;16.48;;
28174;SDS011;59417;44.788;10.334;2023-12-04T13:51:55;21.42;;;15.10;;
28174;SDS011;59417;44.788;10.334;2023-12-04T13:54:21;25.80;;;16.60;;
28174;SDS011;59417;44.788;10.334;2023-12-04T13:56:59;22.65;;;15.70;;
28174;SDS011;59417;44.788;10.334;2023-12-04T13:59:26;24.45;;;17.38;;
28174;SDS011;59417;44.788;10.334;2023-12-04T14:01:56;28.90;;;16.98;;
28174;SDS011;59417;44.788;10.334;2023-12-04T14:04:35;25.08;;;17.15;;
28174;SDS011;59417;44.788;10.334;2023-12-04T14:07:01;22.98;;;17.80;;
28174;SDS011;59417;44.788;10.334;2023-12-04T14:09:28;27.33;;;18.30;;
28174;SDS011;59417;44.788;10.334;2023-12-04T14:11:58;24.08;;;16.55;;
28174;SDS011;59417;44.788;10.334;2023-12-04T14:14:25;26.13;;;16.63;;
28174;SDS011;59417;44.788;10.334;2023-12-04T14:16:58;23.02;;;16.17;;
28174;SDS011;59417;44.788;10.334;2023-12-04T14:19:35;29.10;;;17.05;;
28174;SDS011;59417;44.788;10.334;2023-12-04T14:22:05;29.00;;;16.92;;
28174;SDS011;59417;44.788;10.334;2023-12-04T14:24:40;27.70;;;17.35;;
28174;SDS011;59417;44.788;10.334;2023-12-04T14:27:15;23.98;;;16.02;;
28174;SDS011;59417;44.788;10.334;2023-12-04T14:29:42;23.63;;;16.85;;